Terminal Aerodrome Forecast
Issued by NWS

Home | Current Version | Previous Version | Text Only | Print | Product List | Glossary On
Versions: 1 2 3 4 5 6 7 8 9 10 11 12 13 14 15
277
FTUS46 KMFR 211741
TAFRBG
TAF
KRBG 211741Z 2118/2218 17010G18KT P6SM -RA OVC050 WS020/20040KT
     FM211900 18015G25KT 6SM -RA SCT020 OVC035 WS020/20040KT
     FM212300 21009KT P6SM -RA SCT020 OVC040
     FM221000 VRB05KT P6SM OVC025=

USA.gov is the U.S. government's official web portal to all federal, state and local government web resources and services.